• Join FlightAware (Why Join?)
  • Login
  • US Flag 
03:00AM EDT


 

Airport Tracker/Info


-or-


 

Live Flight TrackerFlight Track Log ✈ ASQ5025 ✈ 30-Apr-2013 ✈ KLGA - KBTV

Flight Track Log - Related Links

Times and Time Zones

All times are in EDT time to prevent confusion due to time zone crossing. See the ASQ5025 flight status page for this flight to view local times or setup timezone preferences in your user account.

Time Position Orientation Groundspeed Altitude Reporting Facility
EDT Latitude Longitude Course Direction KTS MPH feet Rate Location/Type
09:37AM 40.7500 -73.8333 123° Southeast 155 178 1,800  Level New York TRACON
09:38AM 40.7333 -73.8000 123° Southeast 213 245 4,100 2,400 Climbing New York TRACON
09:40AM 40.8511 -73.7050 31° Northeast 272 313 9,300 2,280 Climbing Boston Center
09:41AM 40.9267 -73.6597 24° Northeast 282 325 11,200 1,920 Climbing Boston Center
09:42AM 41.0128 -73.6064 25° Northeast 321 369 13,200 2,100 Climbing Boston Center
09:43AM 41.1153 -73.5422 25° Northeast 355 409 15,500 2,220 Climbing Boston Center
09:44AM 41.2014 -73.4883 25° Northeast 369 425 17,700 2,160 Climbing Boston Center
09:45AM 41.2997 -73.4292 24° Northeast 375 432 19,900 2,100 Climbing Boston Center
09:46AM 41.3942 -73.3753 23° Northeast 375 432 21,900 1,620 Climbing Boston Center
09:47AM 41.4983 -73.3714 North 365 420 23,200 1,140 Climbing Boston Center
09:48AM 41.6067 -73.3728 359° North 371 427 24,200 1,320 Climbing Boston Center
09:49AM 41.7192 -73.3719 360° North 390 449 25,900 1,380 Climbing Boston Center
09:50AM 41.8339 -73.3681 North 395 455 27,000 540 Climbing Boston Center
09:51AM 41.9444 -73.3667 North 400 460 27,000  Level Boston Center
09:52AM 42.0611 -73.3656 360° North 405 466 27,000  Level Boston Center
09:53AM 42.1842 -73.3533 North 423 487 27,000  Level Boston Center
09:54AM 42.3031 -73.3525 360° North 423 487 27,000  Level Boston Center
09:55AM 42.4322 -73.3600 358° North 424 488 27,000  Level Boston Center
09:56AM 42.5531 -73.3561 North 431 496 27,000  Level Boston Center
09:57AM 42.6781 -73.3550 360° North 431 496 27,000  Level Boston Center
09:58AM 42.7989 -73.3511 North 431 496 27,000  Level Boston Center
09:59AM 42.9219 -73.3475 North 431 496 27,000  Level Boston Center
10:00AM 43.0472 -73.3408 North 441 507 27,000  Level Boston Center
10:01AM 43.1703 -73.3253 North 441 507 27,000 -960 Level Boston Center
10:02AM 43.2953 -73.3072 North 441 507 25,100 -1,500 Descending Boston Center
10:03AM 43.3914 -73.2972 North 441 507 24,000 -600 Descending Boston Center
10:04AM 43.5186 -73.2789 North 436 502 23,900 -1,800 Descending Boston Center
10:05AM 43.6311 -73.2661 North 419 482 20,400 -3,600 Descending Boston Center
10:06AM 43.7542 -73.2506 North 411 473 16,700 -3,720 Descending Boston Center
10:07AM 43.8689 -73.2350 North 404 465 13,100 -2,880 Descending Boston Center
10:08AM 43.9753 -73.2192 North 398 458 11,000 -1,080 Descending Boston Center
10:09AM 44.0797 -73.2058 North 387 445 11,000 -600 Level Boston Center
10:10AM 44.1647 -73.2303 348° North 338 389 9,900 -1,920 Descending Boston Center
10:11AM 44.2417 -73.2572 346° North 297 342 7,200 -2,520 Descending Boston Center
10:12AM 44.3186 -73.2817 347° North 277 319 4,900 -2,160 Descending Boston Center
10:13AM 44.3936 -73.2883 356° North 277 319 2,900 -1,500 Descending Boston Center
10:14AM 44.4603 -73.2778 North 260 299 2,000 -600 Descending Boston Center
10:15AM 44.5106 -73.2639 11° North 211 243 1,700 -360 Descending Boston Center
10:16AM 44.5108 -73.2144 90° East 112 129 1,300 -600 Descending Boston Center
10:17AM 44.4861 -73.1761 132° Southeast 106 122 500 -480 Descending Boston Center
10:18AM 44.4717 -73.1500 128° Southeast 104 120 300 11,700 Descending Boston Center
10:19AM 44.4531 -73.1031 119° Southeast 104 120 24,000 11,820 Climbing Boston Center
10:20AM 44.4389 -73.0653 118° Southeast 104 120 24,000  Level Boston Center
10:21AM 44.4222 -73.0300 123° Southeast 104 120 24,000  Level Boston Center